Time;durP1;ratioP1;P1;durP2;ratioP2;P2;SDS_P1;SDS_P2;PMS_P1;PMS_P2;Temp;Humidity;BMP_temperature;BMP_pressure;BME280_temperature;BME280_humidity;BME280_pressure;Samples;Min_cycle;Max_cycle;Signal;HPM_P1;HPM_P2
2023/03/10 00:02:55;;;;;;;3.97;2.17;;;;;;;16.48;39.18;96844.16;7058270;28;20226;-80
2023/03/10 00:06:18;;;;;;;3.30;2.10;;;;;;;16.03;39.65;96798.41;7058607;28;20205;-80
2023/03/10 00:09:40;;;;;;;2.53;2.10;;;;;;;16.59;39.23;96821.19;7057804;28;20335;-80
2023/03/10 00:13:02;;;;;;;2.23;2.03;;;;;;;16.60;39.29;96824.69;7058582;28;20564;-79
2023/03/10 00:16:25;;;;;;;2.60;2.03;;;;;;;16.55;39.50;96805.72;7066796;28;20297;-80
2023/03/10 00:19:48;;;;;;;3.37;2.17;;;;;;;16.95;39.53;96794.28;7062379;28;20213;-79
2023/03/10 00:23:09;;;;;;;3.90;2.10;;;;;;;16.18;41.00;96745.78;7062801;28;20226;-80
2023/03/10 00:26:31;;;;;;;2.10;1.77;;;;;;;16.70;40.37;96770.16;7063151;28;20687;-79
2023/03/10 00:29:52;;;;;;;4.07;2.27;;;;;;;16.94;39.71;96773.63;7060542;28;20306;-80
2023/03/10 00:33:14;;;;;;;6.97;2.07;;;;;;;17.07;38.85;96762.81;7061537;28;20203;-80
2023/03/10 00:36:37;;;;;;;3.30;2.10;;;;;;;17.08;39.07;96752.72;7062040;28;20737;-79
2023/03/10 00:39:58;;;;;;;2.90;1.97;;;;;;;17.01;39.21;96755.81;7060870;28;20311;-79
2023/03/10 00:43:20;;;;;;;5.23;2.67;;;;;;;16.74;39.60;96725.72;7059928;28;20296;-80
2023/03/10 00:46:41;;;;;;;4.50;2.00;;;;;;;16.74;39.50;96741.28;7038091;28;20225;-80
2023/03/10 00:50:03;;;;;;;2.53;1.93;;;;;;;16.69;40.28;96733.19;7033966;28;20311;-81
2023/03/10 00:53:27;;;;;;;3.43;2.10;;;;;;;16.52;40.45;96703.72;7044731;28;20203;-81
2023/03/10 00:56:48;;;;;;;3.87;2.00;;;;;;;16.61;40.90;96701.97;7035741;28;20641;-80
2023/03/10 01:00:13;;;;;;;3.30;1.63;;;;;;;16.90;40.09;96701.81;7027565;28;20292;-80
2023/03/10 01:03:35;;;;;;;2.07;1.87;;;;;;;16.75;40.69;96710.22;7029907;28;20227;-80
2023/03/10 01:06:56;;;;;;;2.80;2.03;;;;;;;16.62;41.11;96710.94;7029623;28;20337;-80
2023/03/10 01:10:19;;;;;;;2.90;1.90;;;;;;;16.60;40.85;96680.50;7028915;28;20323;-79
2023/03/10 01:13:41;;;;;;;2.53;1.90;;;;;;;16.68;40.74;96680.66;7028807;28;20349;-79
2023/03/10 01:17:04;;;;;;;2.43;1.93;;;;;;;16.87;40.56;96688.81;7028082;28;20221;-80
2023/03/10 01:20:25;;;;;;;3.47;1.83;;;;;;;16.37;41.08;96630.50;7028221;28;20232;-81
2023/03/10 01:23:47;;;;;;;3.07;1.90;;;;;;;16.74;40.91;96671.31;7028362;28;20647;-80
2023/03/10 01:27:10;;;;;;;3.63;2.23;;;;;;;16.79;40.80;96673.13;7026093;28;20210;-80
2023/03/10 01:30:31;;;;;;;1.90;1.80;;;;;;;16.50;41.71;96657.00;7024553;28;20229;-80
2023/03/10 01:33:53;;;;;;;2.77;2.07;;;;;;;16.45;41.63;96640.75;7025240;28;20260;-80
2023/03/10 01:37:15;;;;;;;4.50;2.30;;;;;;;16.52;41.34;96659.41;7025331;28;20286;-80
2023/03/10 01:40:37;;;;;;;1.90;1.80;;;;;;;16.14;41.84;96650.41;7024570;28;20281;-81
2023/03/10 01:44:02;;;;;;;3.23;2.00;;;;;;;16.46;41.52;96655.94;7023556;28;20716;-80
2023/03/10 01:47:23;;;;;;;4.57;2.30;;;;;;;16.58;41.55;96658.25;7025474;28;20191;-79
2023/03/10 01:50:47;;;;;;;2.53;2.33;;;;;;;16.24;42.38;96658.44;7024819;28;20516;-80
2023/03/10 01:54:11;;;;;;;4.27;2.13;;;;;;;16.09;41.90;96592.56;7026758;28;20207;-80
2023/03/10 01:57:36;;;;;;;3.67;2.10;;;;;;;16.46;41.89;96641.56;7029866;28;20347;-80
2023/03/10 02:00:58;;;;;;;3.87;1.90;;;;;;;16.12;41.54;96649.91;7028998;28;20290;-80
2023/03/10 02:04:23;;;;;;;3.53;2.10;;;;;;;16.40;41.25;96653.63;7035567;28;20223;-80
2023/03/10 02:07:44;;;;;;;4.43;2.20;;;;;;;16.44;41.49;96655.44;7035755;28;20696;-80
2023/03/10 02:11:06;;;;;;;3.13;2.03;;;;;;;16.35;41.42;96653.66;7031658;28;20234;-79
2023/03/10 02:14:28;;;;;;;3.97;2.20;;;;;;;16.22;42.14;96654.38;7030399;28;20290;-80
2023/03/10 02:17:52;;;;;;;7.00;4.10;;;;;;;15.66;43.03;96637.16;7030577;28;20755;-80
2023/03/10 02:21:17;;;;;;;4.27;2.40;;;;;;;15.23;44.05;96630.78;7029537;28;20320;-79
2023/03/10 02:24:45;;;;;;;3.30;2.00;;;;;;;15.57;43.88;96630.75;7030101;28;20218;-79
2023/03/10 02:28:08;;;;;;;2.10;1.83;;;;;;;15.72;43.56;96639.53;7029664;28;20331;-79
2023/03/10 02:31:30;;;;;;;2.53;1.83;;;;;;;15.88;43.18;96627.38;7036365;28;20321;-79
2023/03/10 02:34:51;;;;;;;2.03;1.70;;;;;;;15.71;44.31;96635.19;7033516;28;20266;-79
2023/03/10 02:38:13;;;;;;;4.73;2.20;;;;;;;16.38;42.44;96634.00;7043526;28;20284;-80
2023/03/10 02:41:36;;;;;;;1.93;1.83;;;;;;;16.11;43.31;96644.75;7041727;28;20322;-80
2023/03/10 02:44:59;;;;;;;4.57;2.30;;;;;;;15.96;44.16;96632.16;7040139;28;20265;-80
2023/03/10 02:48:24;;;;;;;3.60;1.97;;;;;;;15.49;45.73;96629.47;7041575;28;20290;-82
2023/03/10 02:51:47;;;;;;;2.67;2.00;;;;;;;15.49;45.76;96610.47;7036781;28;20223;-80
2023/03/10 02:55:14;;;;;;;4.17;1.87;;;;;;;15.36;46.96;96629.34;7032516;28;20203;-80
2023/03/10 02:58:36;;;;;;;3.77;1.77;;;;;;;15.18;47.90;96643.59;7032974;28;20446;-80
2023/03/10 03:01:59;;;;;;;2.80;1.70;;;;;;;15.29;47.91;96632.34;7030645;28;20293;-80
2023/03/10 03:05:21;;;;;;;2.00;1.63;;;;;;;15.71;46.93;96616.19;7032786;28;20318;-81
2023/03/10 03:08:42;;;;;;;3.40;1.63;;;;;;;14.85;49.53;96610.00;7033473;28;20235;-80
2023/03/10 03:12:04;;;;;;;1.40;1.30;;;;;;;15.02;49.02;96585.13;7031874;28;20321;-80
2023/03/10 03:15:26;;;;;;;1.63;1.50;;;;;;;14.66;50.53;96587.38;7033108;28;20215;-80
2023/03/10 03:18:48;;;;;;;1.70;1.60;;;;;;;15.00;49.84;96618.00;7048663;28;20231;-81
2023/03/10 03:22:10;;;;;;;2.97;1.73;;;;;;;14.85;50.59;96603.75;7045348;28;20333;-80
2023/03/10 03:25:35;;;;;;;1.77;1.50;;;;;;;15.12;49.83;96591.28;7037893;28;20311;-80
2023/03/10 03:28:56;;;;;;;1.53;1.43;;;;;;;14.92;50.40;96612.38;7032731;28;20673;-81
2023/03/10 03:32:18;;;;;;;3.70;1.43;;;;;;;14.55;51.54;96610.25;7034813;28;20321;-80
2023/03/10 03:35:44;;;;;;;1.20;1.20;;;;;;;14.80;50.91;96576.69;7035998;28;20762;-80
2023/03/10 03:39:06;;;;;;;1.23;1.23;;;;;;;14.82;50.97;96601.63;7029916;28;20777;-80
2023/03/10 03:42:27;;;;;;;2.10;2.00;;;;;;;14.83;51.26;96590.50;7027734;28;20365;-80
2023/03/10 03:45:49;;;;;;;1.87;1.77;;;;;;;14.75;51.29;96591.09;7030121;28;20219;-80
2023/03/10 03:49:10;;;;;;;1.27;1.17;;;;;;;14.63;51.59;96573.59;7030458;28;20302;-81
2023/03/10 03:52:33;;;;;;;1.10;1.10;;;;;;;14.69;51.63;96573.25;7028135;28;20291;-79
2023/03/10 03:55:55;;;;;;;1.43;1.33;;;;;;;14.42;52.51;96569.41;7031806;28;20203;-82
2023/03/10 03:59:16;;;;;;;1.30;1.30;;;;;;;13.61;53.56;96514.13;7032551;28;20273;-82
2023/03/10 04:02:38;;;;;;;1.40;1.30;;;;;;;14.14;53.20;96584.50;7031105;28;20263;-82
2023/03/10 04:05:59;;;;;;;1.23;1.20;;;;;;;14.61;51.89;96573.03;7032576;28;20697;-82
2023/03/10 04:09:22;;;;;;;1.50;1.40;;;;;;;14.65;51.80;96558.66;7032761;28;20813;-81
2023/03/10 04:12:44;;;;;;;1.20;1.10;;;;;;;14.31;52.74;96546.19;7031970;28;20308;-82
2023/03/10 04:16:06;;;;;;;1.37;1.27;;;;;;;14.34;53.19;96548.34;7060127;28;20210;-82
2023/03/10 04:19:28;;;;;;;1.63;1.33;;;;;;;14.14;53.74;96562.00;7061448;28;20229;-82
2023/03/10 04:22:49;;;;;;;1.20;1.20;;;;;;;14.22;53.85;96561.44;7060214;28;20263;-81
2023/03/10 04:26:13;;;;;;;1.53;1.43;;;;;;;14.17;53.99;96570.38;7059325;28;20228;-82
2023/03/10 04:29:34;;;;;;;1.53;1.27;;;;;;;14.84;52.21;96556.84;7059143;28;20205;-83
2023/03/10 04:32:57;;;;;;;1.50;1.33;;;;;;;14.77;52.50;96559.09;7059658;28;20349;-82
2023/03/10 04:36:20;;;;;;;1.43;1.43;;;;;;;14.52;53.09;96553.88;7059435;28;20204;-82
2023/03/10 04:39:41;;;;;;;1.60;1.50;;;;;;;14.30;53.12;96509.34;7067194;28;20297;-83
2023/03/10 04:43:04;;;;;;;3.00;2.03;;;;;;;14.68;52.64;96549.94;7067831;28;20287;-83
2023/03/10 04:46:26;;;;;;;3.53;2.27;;;;;;;14.62;52.89;96561.13;7076574;27;20217;-84
2023/03/10 04:49:47;;;;;;;1.70;1.60;;;;;;;14.81;51.71;96560.09;7071762;28;20211;-84
2023/03/10 04:53:09;;;;;;;2.37;1.80;;;;;;;14.86;51.93;96553.84;7054313;28;20271;-83
2023/03/10 04:56:30;;;;;;;2.27;1.60;;;;;;;15.01;51.17;96540.94;7037587;28;20701;-83
2023/03/10 04:59:53;;;;;;;2.37;1.30;;;;;;;15.32;50.45;96538.66;7036452;28;20294;-83
2023/03/10 05:03:15;;;;;;;1.50;1.40;;;;;;;15.29;50.38;96547.41;7035684;28;20212;-83
2023/03/10 05:06:37;;;;;;;1.57;1.43;;;;;;;15.28;49.87;96534.94;7035885;28;20199;-83
2023/03/10 05:09:58;;;;;;;1.63;1.47;;;;;;;15.35;49.95;96538.94;7034097;28;20861;-83
2023/03/10 05:13:20;;;;;;;1.77;1.67;;;;;;;14.90;51.42;96535.88;7034079;28;20297;-82
2023/03/10 05:16:43;;;;;;;2.10;1.90;;;;;;;15.00;51.29;96517.63;7031956;28;20296;-82
2023/03/10 05:20:06;;;;;;;2.57;1.93;;;;;;;15.17;51.05;96522.56;7030758;28;20313;-83
2023/03/10 05:23:28;;;;;;;2.47;2.27;;;;;;;14.98;51.23;96517.06;7032009;28;20212;-83
2023/03/10 05:26:49;;;;;;;1.80;1.70;;;;;;;15.08;50.88;96497.16;7032480;28;20287;-83
2023/03/10 05:30:14;;;;;;;1.70;1.60;;;;;;;14.75;51.44;96490.72;7031668;28;20243;-82
2023/03/10 05:33:37;;;;;;;1.63;1.53;;;;;;;14.78;51.62;96487.47;7028874;28;20206;-82
2023/03/10 05:36:58;;;;;;;2.27;1.50;;;;;;;14.48;51.93;96486.94;7034909;28;20212;-83
2023/03/10 05:40:20;;;;;;;3.57;1.50;;;;;;;14.60;51.79;96479.25;7037441;28;20371;-84
2023/03/10 05:43:43;;;;;;;1.67;1.57;;;;;;;14.91;50.82;96480.53;7037055;28;20262;-82
2023/03/10 05:47:05;;;;;;;4.47;2.07;;;;;;;14.75;50.83;96482.59;7039467;28;20728;-83
2023/03/10 05:50:27;;;;;;;1.60;1.50;;;;;;;15.01;50.44;96478.53;7037981;28;20289;-83
2023/03/10 05:53:49;;;;;;;2.30;1.60;;;;;;;14.91;50.38;96494.09;7041448;28;20238;-82
2023/03/10 05:57:10;;;;;;;1.93;1.70;;;;;;;14.82;50.44;96466.78;7042544;28;20290;-83
2023/03/10 06:00:32;;;;;;;2.90;1.60;;;;;;;15.14;50.02;96491.38;7036173;28;20324;-83
2023/03/10 06:03:53;;;;;;;1.83;1.70;;;;;;;14.68;51.06;96487.56;7034442;28;20418;-82
2023/03/10 06:07:17;;;;;;;1.77;1.50;;;;;;;15.42;49.55;96489.72;7037914;28;20287;-83
2023/03/10 06:10:39;;;;;;;1.63;1.50;;;;;;;15.39;49.59;96455.00;7033719;28;20313;-82
2023/03/10 06:14:00;;;;;;;2.57;2.00;;;;;;;15.57;49.10;96473.22;7040542;28;20293;-82
2023/03/10 06:17:22;;;;;;;4.77;2.00;;;;;;;15.48;49.41;96477.69;7066805;28;20266;-82
2023/03/10 06:20:43;;;;;;;1.63;1.53;;;;;;;15.19;50.89;96471.50;7063460;28;20251;-82
2023/03/10 06:24:06;;;;;;;2.73;2.30;;;;;;;15.01;52.09;96491.28;7065135;28;20298;-82
2023/03/10 06:27:29;;;;;;;4.70;1.93;;;;;;;14.25;55.29;96422.66;7064216;28;20604;-81
2023/03/10 06:30:54;;;;;;;3.57;2.40;;;;;;;14.46;56.78;96483.72;7065811;28;20290;-82
2023/03/10 06:34:15;;;;;;;4.00;1.80;;;;;;;14.24;57.35;96442.72;7065332;28;20214;-81
2023/03/10 06:37:37;;;;;;;2.90;2.10;;;;;;;14.86;56.20;96488.75;7062610;28;20297;-85
2023/03/10 06:41:00;;;;;;;2.23;1.70;;;;;;;14.10;58.19;96482.38;7048001;28;20229;-81
2023/03/10 06:44:21;;;;;;;3.20;1.90;;;;;;;14.42;58.24;96480.78;7049370;28;20261;-81
2023/03/10 06:47:43;;;;;;;2.33;1.60;;;;;;;14.33;58.15;96439.09;7046333;28;20214;-80
2023/03/10 06:51:06;;;;;;;3.13;1.80;;;;;;;14.59;57.84;96442.38;7053243;28;20227;-82
2023/03/10 06:54:27;;;;;;;2.07;1.73;;;;;;;14.24;58.52;96412.91;7061521;28;20240;-81
2023/03/10 06:57:50;;;;;;;2.23;1.60;;;;;;;13.58;60.28;96399.09;7060977;28;20268;-81
2023/03/10 07:01:21;;;;;;;3.20;1.73;;;;;;;14.03;60.43;96422.28;7064071;28;20260;-83
2023/03/10 07:04:42;;;;;;;1.80;1.70;;;;;;;14.10;59.63;96420.88;7065960;27;20222;-81
2023/03/10 07:08:04;;;;;;;2.13;1.80;;;;;;;14.23;58.16;96416.72;7063298;28;20293;-81
2023/03/10 07:11:26;;;;;;;2.30;2.10;;;;;;;14.04;58.01;96426.63;7062593;28;20399;-81
2023/03/10 07:14:49;;;;;;;1.73;1.63;;;;;;;14.33;57.43;96433.69;7047999;28;20655;-81
2023/03/10 07:18:11;;;;;;;3.47;3.10;;;;;;;15.13;56.41;96431.97;7047265;28;20264;-81
2023/03/10 07:21:33;;;;;;;2.33;2.03;;;;;;;15.34;55.25;96427.94;7082383;28;20251;-81
2023/03/10 07:24:54;;;;;;;1.70;1.60;;;;;;;15.35;54.16;96422.22;7082703;28;20283;-81
2023/03/10 07:28:16;;;;;;;3.30;1.90;;;;;;;15.37;54.49;96411.03;7082512;28;20337;-82
2023/03/10 07:31:39;;;;;;;1.40;1.30;;;;;;;15.26;53.95;96425.81;7081629;28;20733;-81
2023/03/10 07:35:01;;;;;;;1.50;1.40;;;;;;;15.49;53.78;96430.41;7081594;28;20233;-81
2023/03/10 07:38:22;;;;;;;1.40;1.30;;;;;;;15.75;52.64;96432.47;7080844;28;20219;-81
2023/03/10 07:41:44;;;;;;;1.60;1.50;;;;;;;15.61;52.98;96447.91;7062052;28;20230;-80
2023/03/10 07:45:06;;;;;;;1.67;1.57;;;;;;;15.36;53.77;96445.53;7060339;28;20220;-80
2023/03/10 07:48:29;;;;;;;1.80;1.50;;;;;;;15.53;53.09;96420.59;7032189;28;20222;-80
2023/03/10 07:51:51;;;;;;;1.53;1.43;;;;;;;15.91;51.83;96438.47;7047719;28;20690;-81
2023/03/10 07:55:12;;;;;;;1.67;1.57;;;;;;;15.55;52.68;96434.66;7061257;28;20215;-81
2023/03/10 07:58:34;;;;;;;1.73;1.63;;;;;;;15.22;53.85;96439.16;7054182;28;20263;-81
2023/03/10 08:01:55;;;;;;;2.77;1.50;;;;;;;15.06;53.31;96440.47;7057551;28;20261;-80
2023/03/10 08:05:19;;;;;;;2.60;2.37;;;;;;;15.37;52.95;96454.47;7053847;28;20264;-78
2023/03/10 08:08:40;;;;;;;3.30;2.00;;;;;;;15.61;52.33;96449.78;7047561;28;20214;-78
2023/03/10 08:12:03;;;;;;;2.37;2.17;;;;;;;15.81;50.95;96425.84;7052203;28;20232;-78
2023/03/10 08:15:25;;;;;;;2.43;1.67;;;;;;;16.07;50.44;96437.94;7048728;28;20206;-78
2023/03/10 08:18:46;;;;;;;2.03;1.90;;;;;;;15.81;52.46;96471.25;7054911;28;20199;-78
2023/03/10 08:22:09;;;;;;;2.07;1.50;;;;;;;15.14;53.46;96471.56;7052777;28;20259;-78
2023/03/10 08:25:31;;;;;;;2.83;1.67;;;;;;;14.83;54.79;96481.16;7053382;28;20371;-77
2023/03/10 08:28:53;;;;;;;1.50;1.40;;;;;;;14.02;56.91;96493.81;7052773;28;20213;-77
2023/03/10 08:32:15;;;;;;;1.60;1.50;;;;;;;13.62;56.66;96497.59;7052593;28;20372;-78
2023/03/10 08:35:37;;;;;;;1.73;1.53;;;;;;;13.41;58.32;96476.34;7056483;28;20361;-79
2023/03/10 08:39:01;;;;;;;1.60;1.50;;;;;;;13.32;59.05;96480.72;7051513;28;20201;-79
2023/03/10 08:42:22;;;;;;;1.70;1.60;;;;;;;13.65;58.73;96507.91;7057451;28;20250;-79
2023/03/10 08:45:43;;;;;;;1.40;1.30;;;;;;;13.59;58.40;96514.44;7033337;28;20356;-80
2023/03/10 08:49:05;;;;;;;1.40;1.40;;;;;;;13.50;58.94;96515.25;7033366;28;20289;-80
2023/03/10 08:52:27;;;;;;;2.93;1.40;;;;;;;13.65;58.31;96516.00;7053733;28;20229;-80
2023/03/10 08:55:49;;;;;;;1.60;1.50;;;;;;;14.13;57.15;96525.97;7056269;28;20235;-80
2023/03/10 08:59:11;;;;;;;1.30;1.30;;;;;;;13.91;58.53;96517.47;7057255;28;20199;-80
2023/03/10 09:02:33;;;;;;;1.63;1.40;;;;;;;14.31;56.87;96519.09;7052852;28;20361;-80
2023/03/10 09:05:55;;;;;;;1.83;1.50;;;;;;;14.44;57.04;96540.09;7056202;28;20277;-80
2023/03/10 09:09:17;;;;;;;1.50;1.40;;;;;;;14.72;56.71;96548.28;7056020;28;20210;-80
2023/03/10 09:12:41;;;;;;;3.03;1.60;;;;;;;14.60;57.18;96547.03;7054791;28;20352;-80
2023/03/10 09:16:02;;;;;;;1.83;1.73;;;;;;;14.63;56.37;96547.25;7066776;28;20197;-81
2023/03/10 09:19:24;;;;;;;1.83;1.50;;;;;;;14.80;56.62;96547.66;7064715;28;20687;-80
2023/03/10 09:22:45;;;;;;;1.67;1.50;;;;;;;14.83;56.23;96517.25;7060567;28;20225;-80
2023/03/10 09:26:07;;;;;;;1.67;1.57;;;;;;;16.33;52.93;96541.66;7059538;28;20365;-80
2023/03/10 09:29:31;;;;;;;1.60;1.50;;;;;;;16.48;53.09;96519.66;7059757;28;20209;-80
2023/03/10 09:32:54;;;;;;;1.50;1.37;;;;;;;16.67;51.81;96504.91;7054377;28;20239;-80
2023/03/10 09:36:17;;;;;;;1.43;1.40;;;;;;;16.73;51.02;96517.31;7060669;28;20675;-80
2023/03/10 09:39:39;;;;;;;1.73;1.63;;;;;;;16.83;51.43;96516.34;7061387;28;20563;-80
2023/03/10 09:43:01;;;;;;;1.57;1.47;;;;;;;16.99;50.70;96509.50;7062796;28;20252;-80
2023/03/10 09:46:26;;;;;;;2.13;1.50;;;;;;;16.62;50.65;96515.88;7059345;28;20372;-80
2023/03/10 09:49:56;;;;;;;4.07;2.00;;;;;;;16.31;52.07;96497.63;7041415;28;20204;-80
2023/03/10 09:53:27;;;;;;;1.47;1.37;;;;;;;16.08;53.25;96523.81;7031462;28;20303;-80
2023/03/10 09:56:49;;;;;;;1.60;1.50;;;;;;;15.82;52.84;96478.28;7054071;28;20767;-80
2023/03/10 10:00:20;;;;;;;3.03;1.53;;;;;;;16.23;52.77;96495.59;7053784;28;20231;-80
2023/03/10 10:03:44;;;;;;;1.50;1.40;;;;;;;16.78;51.81;96498.19;7049203;28;20231;-80
2023/03/10 10:07:14;;;;;;;1.50;1.33;;;;;;;17.03;51.19;96494.97;7027318;28;20316;-80
2023/03/10 10:10:37;;;;;;;2.17;1.57;;;;;;;16.53;52.68;96511.44;7043139;28;20250;-80
2023/03/10 10:14:13;;;;;;;5.77;1.60;;;;;;;16.37;51.83;96505.41;7051030;28;20220;-80
2023/03/10 10:17:47;;;;;;;2.80;1.63;;;;;;;16.03;52.75;96507.56;7027931;28;20182;-80
2023/03/10 10:21:15;;;;;;;3.40;1.60;;;;;;;16.71;51.62;96507.84;7050466;28;20227;-80
2023/03/10 10:24:37;;;;;;;2.40;1.97;;;;;;;16.62;50.17;96509.63;7058426;28;20232;-80
2023/03/10 10:28:01;;;;;;;2.80;2.20;;;;;;;16.10;51.65;96507.22;7060808;28;20847;-80
2023/03/10 10:31:25;;;;;;;4.50;2.90;;;;;;;15.56;52.27;96494.13;7058702;28;20277;-80
2023/03/10 10:34:48;;;;;;;3.33;1.67;;;;;;;15.38;53.45;96505.78;7058462;28;20923;-81
2023/03/10 10:38:23;;;;;;;2.10;1.50;;;;;;;15.89;52.82;96509.44;7058665;28;20605;-84
2023/03/10 10:41:44;;;;;;;1.80;1.50;;;;;;;16.09;51.79;96503.69;7058360;28;20630;-81
2023/03/10 10:45:24;;;;;;;1.53;1.40;;;;;;;15.82;51.53;96513.59;7059666;28;20260;-79
2023/03/10 10:48:46;;;;;;;2.83;1.37;;;;;;;15.64;52.61;96495.38;7059508;28;20232;-80
2023/03/10 10:52:19;;;;;;;2.63;1.50;;;;;;;15.61;52.89;96509.53;7056707;28;20263;-79
2023/03/10 10:55:44;;;;;;;1.50;1.40;;;;;;;15.81;51.48;96504.63;7056269;28;20194;-79
2023/03/10 10:59:07;;;;;;;4.77;1.60;;;;;;;15.61;51.83;96507.66;7057769;28;20246;-80
2023/03/10 11:02:32;;;;;;;2.30;1.70;;;;;;;16.10;52.54;96488.19;7057800;28;20326;-80
2023/03/10 11:05:54;;;;;;;1.87;1.53;;;;;;;16.12;51.56;96494.94;7056109;28;20221;-78
2023/03/10 11:09:17;;;;;;;2.57;1.70;;;;;;;15.61;52.51;96504.94;7056454;28;20615;-79
2023/03/10 11:12:50;;;;;;;1.93;1.70;;;;;;;16.26;52.00;96479.47;7055148;28;20236;-79
2023/03/10 11:16:15;;;;;;;1.57;1.33;;;;;;;16.73;50.31;96492.00;7064084;28;20206;-80
2023/03/10 11:19:49;;;;;;;1.70;1.50;;;;;;;16.78;49.15;96514.50;7064113;28;20272;-81
2023/03/10 11:23:18;;;;;;;2.20;1.60;;;;;;;16.53;49.71;96497.81;7059844;28;20195;-80
2023/03/10 11:26:50;;;;;;;1.40;1.30;;;;;;;16.30;49.48;96506.88;7063470;28;20361;-81
2023/03/10 11:30:16;;;;;;;2.33;1.50;;;;;;;15.21;51.18;96497.25;7074409;28;20244;-82
2023/03/10 11:33:44;;;;;;;1.90;1.47;;;;;;;15.17;51.85;96530.72;7067223;28;20230;-81
2023/03/10 11:37:14;;;;;;;3.50;1.90;;;;;;;15.35;52.25;96516.41;7062275;28;20279;-79
2023/03/10 11:40:43;;;;;;;4.87;2.13;;;;;;;15.70;51.81;96534.97;7059911;28;20625;-81
2023/03/10 11:44:11;;;;;;;2.10;1.87;;;;;;;15.86;51.46;96522.78;7056961;28;20215;-81
2023/03/10 11:47:45;;;;;;;1.83;1.73;;;;;;;15.46;52.59;96523.34;7056990;28;20798;-81
2023/03/10 11:51:07;;;;;;;2.37;2.10;;;;;;;15.53;52.10;96529.22;7055184;28;20556;-80
2023/03/10 11:54:33;;;;;;;3.33;2.13;;;;;;;15.56;52.64;96534.88;7056568;28;20697;-82
2023/03/10 11:57:58;;;;;;;2.27;2.00;;;;;;;16.24;51.41;96517.03;7043618;28;20199;-82
2023/03/10 12:01:24;;;;;;;2.20;1.40;;;;;;;15.55;51.24;96524.28;7027980;28;20232;-81
2023/03/10 12:04:51;;;;;;;3.33;1.57;;;;;;;14.49;51.77;96527.34;7029719;28;20205;-81
2023/03/10 12:08:13;;;;;;;2.00;1.60;;;;;;;14.38;53.21;96539.34;7029444;28;20825;-81
2023/03/10 12:11:36;;;;;;;1.40;1.30;;;;;;;14.62;52.19;96526.66;7037627;28;20234;-81
2023/03/10 12:15:00;;;;;;;2.03;1.90;;;;;;;14.52;52.93;96534.88;7054863;28;20212;-81
2023/03/10 12:18:21;;;;;;;1.70;1.53;;;;;;;14.64;52.92;96535.31;7053253;28;20320;-81
2023/03/10 12:21:46;;;;;;;2.03;1.60;;;;;;;15.03;52.00;96524.34;7038634;28;20315;-82
2023/03/10 12:25:40;;;;;;;2.27;1.50;;;;;;;15.75;50.23;96513.16;7047848;28;20229;-80
2023/03/10 12:29:22;;;;;;;1.43;1.30;;;;;;;15.61;49.50;96518.50;7015131;28;20262;-80
2023/03/10 12:32:46;;;;;;;2.37;1.70;;;;;;;15.79;49.41;96520.44;7031344;28;20239;-81
2023/03/10 12:36:10;;;;;;;1.53;1.43;;;;;;;16.13;49.08;96521.03;7029018;28;20209;-81
2023/03/10 12:39:40;;;;;;;1.60;1.50;;;;;;;15.53;49.67;96530.03;7028809;28;20207;-81
2023/03/10 12:43:52;;;;;;;1.43;1.33;;;;;;;14.79;51.56;96515.38;7030171;28;20315;-79
2023/03/10 12:47:29;;;;;;;3.23;1.27;;;;;;;15.08;50.01;96535.97;7057595;28;20721;-80
2023/03/10 12:50:55;;;;;;;1.90;1.60;;;;;;;15.39;50.07;96539.97;7057119;28;20237;-81
2023/03/10 12:54:42;;;;;;;2.17;1.37;;;;;;;15.61;50.26;96542.13;7059610;28;20190;-81
2023/03/10 12:58:09;;;;;;;2.23;1.20;;;;;;;15.29;49.78;96531.91;7043644;28;20713;-81
2023/03/10 13:01:34;;;;;;;1.63;1.20;;;;;;;15.13;50.62;96516.09;7058692;28;20244;-82
2023/03/10 13:05:00;;;;;;;1.70;1.60;;;;;;;14.43;51.35;96481.56;7058548;28;20342;-81
2023/03/10 13:08:26;;;;;;;1.33;1.23;;;;;;;14.93;51.23;96506.28;7059171;28;20299;-81
2023/03/10 13:11:53;;;;;;;1.00;1.00;;;;;;;15.06;50.05;96458.66;7031662;28;20224;-80
2023/03/10 13:15:21;;;;;;;1.20;1.20;;;;;;;15.77;49.47;96524.53;7038723;28;20196;-80
2023/03/10 13:18:47;;;;;;;1.30;1.30;;;;;;;15.13;50.99;96543.22;7055415;28;20190;-80
2023/03/10 13:22:16;;;;;;;1.30;1.30;;;;;;;15.08;51.12;96535.97;7054076;28;20222;-81
2023/03/10 13:25:37;;;;;;;1.20;1.10;;;;;;;14.60;52.28;96541.59;7041878;28;20441;-81
2023/03/10 13:29:02;;;;;;;1.30;1.20;;;;;;;14.25;52.81;96526.47;7030214;28;20412;-80
2023/03/10 13:32:24;;;;;;;0.90;0.90;;;;;;;14.69;52.31;96548.03;7054726;28;20235;-79
2023/03/10 13:35:47;;;;;;;1.43;1.33;;;;;;;14.49;53.03;96540.91;7056052;28;20211;-80
2023/03/10 13:39:15;;;;;;;1.50;1.30;;;;;;;14.20;53.57;96558.19;7056537;28;20214;-81
2023/03/10 13:42:36;;;;;;;1.20;1.20;;;;;;;13.93;52.79;96553.19;7058813;28;20226;-80
2023/03/10 13:46:00;;;;;;;1.43;1.30;;;;;;;13.99;52.97;96538.53;7053008;28;20250;-80
2023/03/10 13:49:24;;;;;;;1.43;1.33;;;;;;;14.70;52.70;96574.06;7050117;28;20201;-80
2023/03/10 13:52:56;;;;;;;1.37;1.37;;;;;;;14.68;52.78;96581.69;7056228;28;20305;-80
2023/03/10 13:56:19;;;;;;;2.00;1.50;;;;;;;14.21;55.26;96585.03;7042536;28;20202;-79
2023/03/10 13:59:41;;;;;;;1.10;1.10;;;;;;;13.78;56.57;96571.44;7064172;28;20296;-79
2023/03/10 14:03:07;;;;;;;1.67;1.57;;;;;;;13.70;56.23;96567.41;7063726;28;20211;-79
2023/03/10 14:06:29;;;;;;;1.27;1.27;;;;;;;14.15;54.90;96577.97;7064093;28;20218;-80
2023/03/10 14:10:14;;;;;;;1.07;1.07;;;;;;;14.31;54.09;96571.41;7060969;28;20291;-80
2023/03/10 14:13:40;;;;;;;1.13;1.13;;;;;;;14.17;55.20;96556.81;7034481;28;20208;-81
2023/03/10 14:17:03;;;;;;;1.10;1.10;;;;;;;14.78;52.40;96549.84;7048026;28;21358;-81
2023/03/10 14:20:29;;;;;;;1.83;1.40;;;;;;;14.18;56.28;96579.31;7046212;28;20230;-80
2023/03/10 14:23:52;;;;;;;1.30;1.20;;;;;;;14.52;53.86;96572.06;7039283;28;20828;-80
2023/03/10 14:27:13;;;;;;;1.20;1.20;;;;;;;14.59;53.59;96594.22;7052904;28;20718;-80
2023/03/10 14:30:36;;;;;;;1.10;1.00;;;;;;;14.53;54.02;96606.19;7062076;28;20252;-80
2023/03/10 14:33:58;;;;;;;1.07;1.00;;;;;;;14.69;54.58;96624.78;7060704;28;20538;-80
2023/03/10 14:37:22;;;;;;;1.10;1.10;;;;;;;14.10;54.27;96628.69;7059662;28;20324;-80
2023/03/10 14:40:45;;;;;;;1.50;1.00;;;;;;;14.00;54.59;96594.34;7048940;28;20228;-80
2023/03/10 14:44:07;;;;;;;1.50;1.33;;;;;;;14.12;56.06;96629.22;7031207;28;20266;-80
2023/03/10 14:47:29;;;;;;;1.20;1.20;;;;;;;13.76;56.98;96625.06;7031108;28;20225;-80
2023/03/10 14:50:50;;;;;;;1.60;1.50;;;;;;;13.90;58.05;96636.91;7050933;28;20220;-80
2023/03/10 14:54:17;;;;;;;1.70;1.13;;;;;;;14.50;56.08;96650.13;7059364;28;20305;-80
2023/03/10 14:57:39;;;;;;;1.07;1.07;;;;;;;13.85;57.43;96655.91;7058054;28;20284;-80
2023/03/10 15:01:02;;;;;;;1.27;1.27;;;;;;;14.32;56.30;96629.13;7041365;28;20267;-80
2023/03/10 15:04:23;;;;;;;1.10;1.10;;;;;;;13.95;56.49;96648.56;7059383;28;20228;-80
2023/03/10 15:07:47;;;;;;;1.27;1.27;;;;;;;13.90;57.57;96669.41;7059306;28;20218;-80
2023/03/10 15:11:10;;;;;;;1.20;1.13;;;;;;;13.78;56.73;96667.03;7057796;28;20223;-80
2023/03/10 15:14:32;;;;;;;1.27;1.27;;;;;;;13.26;58.52;96663.94;7049468;28;20575;-80
2023/03/10 15:17:53;;;;;;;1.40;1.30;;;;;;;13.96;57.31;96684.56;7039640;28;20632;-80
2023/03/10 15:21:15;;;;;;;1.40;1.33;;;;;;;13.86;56.71;96709.00;7046190;28;20227;-81
2023/03/10 15:24:36;;;;;;;1.20;1.20;;;;;;;13.66;56.86;96725.28;7032337;28;20185;-80
2023/03/10 15:27:59;;;;;;;1.20;1.20;;;;;;;13.07;56.84;96735.13;7052606;28;20358;-80
2023/03/10 15:31:21;;;;;;;1.07;1.07;;;;;;;13.30;56.15;96764.31;7052406;28;20560;-80
2023/03/10 15:34:42;;;;;;;1.20;1.20;;;;;;;12.81;55.67;96757.78;7058045;28;20280;-80
2023/03/10 15:38:04;;;;;;;1.23;1.23;;;;;;;12.66;55.41;96761.28;7060332;28;20205;-80
2023/03/10 15:41:25;;;;;;;1.10;1.10;;;;;;;12.21;56.04;96808.97;7059804;28;20320;-81
2023/03/10 15:44:49;;;;;;;1.20;1.20;;;;;;;12.01;56.01;96801.59;7059543;28;20690;-82
2023/03/10 15:48:10;;;;;;;1.60;1.50;;;;;;;12.03;56.20;96790.53;7060886;28;20314;-81
2023/03/10 15:51:32;;;;;;;1.20;1.20;;;;;;;12.26;55.73;96784.66;7059313;28;20355;-82
2023/03/10 15:54:54;;;;;;;1.37;1.37;;;;;;;13.43;53.35;96805.19;7060509;28;20312;-81
2023/03/10 15:58:15;;;;;;;1.30;1.30;;;;;;;12.41;54.51;96815.28;7077425;27;20469;-82
2023/03/10 16:01:39;;;;;;;1.40;1.23;;;;;;;12.24;55.14;96820.06;7073010;27;20324;-82